Time;durP1;ratioP1;P1;durP2;ratioP2;P2;SDS_P1;SDS_P2;PMS_P1;PMS_P2;Temp;Humidity;BMP_temperature;BMP_pressure;BME280_temperature;BME280_humidity;BME280_pressure;Samples;Min_cycle;Max_cycle;Signal;HPM_P1;HPM_P2
2021/06/11 00:00:44;;;;;;;7.57;5.07;;;;;;;;;;4920967;29;20056;-68
2021/06/11 00:03:10;;;;;;;7.63;5.35;;;;;;;;;;4911488;29;20032;-65
2021/06/11 00:05:37;;;;;;;11.13;6.35;;;;;;;;;;4911579;29;20095;-73
2021/06/11 00:08:03;;;;;;;6.32;5.45;;;;;;;;;;4906324;29;20027;-75
2021/06/11 00:10:30;;;;;;;8.18;5.28;;;;;;;;;;4912972;29;20029;-76
2021/06/11 00:12:56;;;;;;;8.63;5.63;;;;;;;;;;4914052;29;20024;-76
2021/06/11 00:15:22;;;;;;;7.40;5.35;;;;;;;;;;4907541;29;20044;-82
2021/06/11 00:17:48;;;;;;;5.68;5.07;;;;;;;;;;4917017;29;20044;-72
2021/06/11 00:20:14;;;;;;;7.85;5.45;;;;;;;;;;4917281;29;20114;-77
2021/06/11 00:22:41;;;;;;;8.80;5.47;;;;;;;;;;4912459;29;20020;-64
2021/06/11 00:25:11;;;;;;;6.53;5.38;;;;;;;;;;4913140;29;20020;-76
2021/06/11 00:27:37;;;;;;;6.57;5.35;;;;;;;;;;4910206;29;20020;-65
2021/06/11 00:30:04;;;;;;;5.95;5.35;;;;;;;;;;4914547;29;20395;-79
2021/06/11 00:32:30;;;;;;;6.45;5.38;;;;;;;;;;4910142;29;20032;-68
2021/06/11 00:34:56;;;;;;;7.72;6.30;;;;;;;;;;4912290;29;20041;-74
2021/06/11 00:37:22;;;;;;;8.38;6.07;;;;;;;;;;4909758;29;20029;-66
2021/06/11 00:39:49;;;;;;;7.35;6.43;;;;;;;;;;4909432;29;20072;-70
2021/06/11 00:42:15;;;;;;;8.25;6.40;;;;;;;;;;4915680;29;20056;-72
2021/06/11 00:44:41;;;;;;;11.90;6.72;;;;;;;;;;4917541;29;20036;-72
2021/06/11 00:47:07;;;;;;;10.25;6.95;;;;;;;;;;4916290;29;20080;-71
2021/06/11 00:49:33;;;;;;;11.27;6.95;;;;;;;;;;4915892;29;20052;-67
2021/06/11 00:51:59;;;;;;;9.43;6.72;;;;;;;;;;4929307;29;20382;-70
2021/06/11 00:54:25;;;;;;;10.02;7.15;;;;;;;;;;4925352;29;20395;-64
2021/06/11 00:56:51;;;;;;;9.85;6.72;;;;;;;;;;4920013;29;20028;-65
2021/06/11 00:59:19;;;;;;;11.43;6.63;;;;;;;;;;4916365;29;20134;-74
2021/06/11 01:01:45;;;;;;;13.10;6.82;;;;;;;;;;4918448;29;20031;-66
2021/06/11 01:04:12;;;;;;;8.90;6.70;;;;;;;;;;4907765;29;20051;-70
2021/06/11 01:06:40;;;;;;;8.45;6.95;;;;;;;;;;4915594;29;20110;-74
2021/06/11 01:09:07;;;;;;;8.50;6.53;;;;;;;;;;4919650;29;20048;-65
2021/06/11 01:11:36;;;;;;;9.68;6.80;;;;;;;;;;4922603;29;20075;-64
2021/06/11 01:14:02;;;;;;;7.97;6.80;;;;;;;;;;4915938;29;20031;-63
2021/06/11 01:16:28;;;;;;;8.60;6.93;;;;;;;;;;4920500;29;20063;-69
2021/06/11 01:18:54;;;;;;;7.10;6.40;;;;;;;;;;4925676;29;20024;-66
2021/06/11 01:21:21;;;;;;;9.10;7.25;;;;;;;;;;4931557;29;20039;-65
2021/06/11 01:24:11;;;;;;;8.38;6.97;;;;;;;;;;4922831;29;20024;-66
2021/06/11 01:26:38;;;;;;;9.70;7.50;;;;;;;;;;4916160;29;20071;-66
2021/06/11 01:29:08;;;;;;;9.13;6.95;;;;;;;;;;4907786;29;20467;-76
2021/06/11 01:31:35;;;;;;;8.75;7.03;;;;;;;;;;4910453;29;20062;-65
2021/06/11 01:34:04;;;;;;;11.20;7.07;;;;;;;;;;4911368;29;20483;-70
2021/06/11 01:36:36;;;;;;;9.35;7.35;;;;;;;;;;4910821;29;20036;-67
2021/06/11 01:39:03;;;;;;;7.90;6.97;;;;;;;;;;4911045;29;20017;-72
2021/06/11 01:41:32;;;;;;;9.63;7.53;;;;;;;;;;4915988;29;20032;-72
2021/06/11 01:43:59;;;;;;;8.50;6.70;;;;;;;;;;4915632;29;20035;-64
2021/06/11 01:46:27;;;;;;;10.10;6.30;;;;;;;;;;4898201;29;20137;-64
2021/06/11 01:48:54;;;;;;;12.13;6.60;;;;;;;;;;4918568;29;20035;-66
2021/06/11 01:51:20;;;;;;;8.27;6.30;;;;;;;;;;4923569;29;20031;-66
2021/06/11 01:53:47;;;;;;;9.85;6.10;;;;;;;;;;4911079;29;20044;-67
2021/06/11 01:56:14;;;;;;;6.13;5.53;;;;;;;;;;4919147;29;20035;-64
2021/06/11 01:58:41;;;;;;;7.43;5.90;;;;;;;;;;4919744;29;20036;-65
2021/06/11 02:01:08;;;;;;;10.32;5.60;;;;;;;;;;4917228;29;20110;-67
2021/06/11 02:03:35;;;;;;;6.78;5.18;;;;;;;;;;4914372;29;20036;-77
2021/06/11 02:06:01;;;;;;;8.10;5.53;;;;;;;;;;4917895;29;20043;-69
2021/06/11 02:08:28;;;;;;;7.82;5.68;;;;;;;;;;4916849;29;20024;-67
2021/06/11 02:10:54;;;;;;;6.75;5.50;;;;;;;;;;4909876;29;20047;-69
2021/06/11 02:13:23;;;;;;;6.15;5.47;;;;;;;;;;4910308;29;20439;-69
2021/06/11 02:15:49;;;;;;;6.95;5.35;;;;;;;;;;4918119;29;20043;-64
2021/06/11 02:18:15;;;;;;;6.75;6.05;;;;;;;;;;4921425;29;20059;-64
2021/06/11 02:20:42;;;;;;;9.35;5.82;;;;;;;;;;4920632;29;20400;-66
2021/06/11 02:23:08;;;;;;;9.82;6.20;;;;;;;;;;4917721;29;20357;-67
2021/06/11 02:25:34;;;;;;;9.43;6.22;;;;;;;;;;4909375;29;20037;-66
2021/06/11 02:28:00;;;;;;;7.28;6.00;;;;;;;;;;4909680;29;20024;-66
2021/06/11 02:30:29;;;;;;;7.45;6.53;;;;;;;;;;4905776;29;20028;-64
2021/06/11 02:32:55;;;;;;;10.48;7.05;;;;;;;;;;4917198;29;20021;-67
2021/06/11 02:35:23;;;;;;;9.85;6.13;;;;;;;;;;4923759;29;20028;-67
2021/06/11 02:37:50;;;;;;;11.63;6.40;;;;;;;;;;4915054;29;20028;-64
2021/06/11 02:40:16;;;;;;;9.70;6.50;;;;;;;;;;4912864;29;20028;-65
2021/06/11 02:42:44;;;;;;;9.20;6.45;;;;;;;;;;4922020;29;20376;-75
2021/06/11 02:45:14;;;;;;;7.22;5.95;;;;;;;;;;4915759;29;20555;-70
2021/06/11 02:47:50;;;;;;;9.20;6.38;;;;;;;;;;4918569;29;20111;-68
2021/06/11 02:50:17;;;;;;;8.02;6.10;;;;;;;;;;4918849;29;20471;-65
2021/06/11 02:52:48;;;;;;;6.50;5.80;;;;;;;;;;4911096;29;20037;-67
2021/06/11 02:55:18;;;;;;;8.10;6.13;;;;;;;;;;4916075;29;20037;-67
2021/06/11 02:57:53;;;;;;;9.02;6.43;;;;;;;;;;4912217;29;20029;-69
2021/06/11 03:00:20;;;;;;;9.32;6.20;;;;;;;;;;4918832;29;20416;-72
2021/06/11 03:02:55;;;;;;;9.27;5.70;;;;;;;;;;4912809;29;20081;-75
2021/06/11 03:05:23;;;;;;;6.72;5.78;;;;;;;;;;4913998;29;20179;-74
2021/06/11 03:07:53;;;;;;;7.13;5.85;;;;;;;;;;4923512;29;20020;-68
2021/06/11 03:10:21;;;;;;;9.73;6.30;;;;;;;;;;4912729;29;20028;-66
2021/06/11 03:12:48;;;;;;;7.13;5.40;;;;;;;;;;4912657;29;20104;-64
2021/06/11 03:15:14;;;;;;;9.25;5.70;;;;;;;;;;4914003;29;20032;-72
2021/06/11 03:17:44;;;;;;;6.90;5.70;;;;;;;;;;4915626;29;20123;-71
2021/06/11 03:20:12;;;;;;;13.50;6.15;;;;;;;;;;4910126;29;20394;-67
2021/06/11 03:22:42;;;;;;;14.20;6.68;;;;;;;;;;4916748;29;20044;-64
2021/06/11 03:25:16;;;;;;;9.75;6.78;;;;;;;;;;4915329;29;20048;-72
2021/06/11 03:27:46;;;;;;;12.55;6.50;;;;;;;;;;4915509;29;20027;-65
2021/06/11 03:30:15;;;;;;;9.38;6.28;;;;;;;;;;4906263;29;20479;-73
2021/06/11 03:32:45;;;;;;;10.27;5.95;;;;;;;;;;4917525;29;20036;-72
2021/06/11 03:35:17;;;;;;;11.30;6.38;;;;;;;;;;4913075;29;20059;-64
2021/06/11 03:37:46;;;;;;;12.93;6.30;;;;;;;;;;4911983;29;20025;-69
2021/06/11 03:40:13;;;;;;;9.05;6.28;;;;;;;;;;4920365;29;20542;-66
2021/06/11 03:42:39;;;;;;;11.55;6.72;;;;;;;;;;4919880;29;20522;-72
2021/06/11 03:45:06;;;;;;;9.68;6.55;;;;;;;;;;4916377;29;20037;-72
2021/06/11 03:47:34;;;;;;;12.43;7.03;;;;;;;;;;4914752;29;20387;-66
2021/06/11 03:50:01;;;;;;;10.63;6.68;;;;;;;;;;4917582;29;20041;-63
2021/06/11 03:52:28;;;;;;;12.65;7.70;;;;;;;;;;4914781;29;20047;-75
2021/06/11 03:54:56;;;;;;;11.63;7.32;;;;;;;;;;4915769;29;20032;-67
2021/06/11 03:57:23;;;;;;;9.65;6.93;;;;;;;;;;4912189;29;20096;-63
2021/06/11 03:59:50;;;;;;;10.88;7.18;;;;;;;;;;4913678;29;20044;-64
2021/06/11 04:02:16;;;;;;;9.38;7.38;;;;;;;;;;4912886;29;20036;-69
2021/06/11 04:04:42;;;;;;;9.90;7.38;;;;;;;;;;4915315;29;20032;-69
2021/06/11 04:07:18;;;;;;;8.65;7.53;;;;;;;;;;4925297;29;20036;-72
2021/06/11 04:10:05;;;;;;;12.32;7.65;;;;;;;;;;4920776;29;20493;-65
2021/06/11 04:12:35;;;;;;;9.65;7.45;;;;;;;;;;4919328;29;20043;-72
2021/06/11 04:15:02;;;;;;;10.73;7.30;;;;;;;;;;4920045;29;20040;-69
2021/06/11 04:17:29;;;;;;;13.00;7.35;;;;;;;;;;4911607;29;20063;-65
2021/06/11 04:19:59;;;;;;;11.68;7.55;;;;;;;;;;4913610;29;20036;-71
2021/06/11 04:22:27;;;;;;;11.70;8.07;;;;;;;;;;4914411;29;20031;-66
2021/06/11 04:24:53;;;;;;;9.35;7.05;;;;;;;;;;4919128;29;20588;-67
2021/06/11 04:27:20;;;;;;;12.30;7.35;;;;;;;;;;4919558;29;20035;-70
2021/06/11 04:29:48;;;;;;;11.00;7.10;;;;;;;;;;4916059;29;20546;-74
2021/06/11 04:32:14;;;;;;;12.13;7.53;;;;;;;;;;4922116;29;20062;-63
2021/06/11 04:34:40;;;;;;;12.38;6.93;;;;;;;;;;4912776;29;21501;-70
2021/06/11 04:37:08;;;;;;;16.98;7.70;;;;;;;;;;4910966;29;20601;-69
2021/06/11 04:39:34;;;;;;;15.20;8.00;;;;;;;;;;4904217;29;20120;-71
2021/06/11 04:42:12;;;;;;;19.30;8.13;;;;;;;;;;4922715;29;20027;-74
2021/06/11 04:44:38;;;;;;;15.38;7.80;;;;;;;;;;4886989;29;20075;-70
2021/06/11 04:47:04;;;;;;;11.95;6.95;;;;;;;;;;4911430;29;20033;-82
2021/06/11 04:49:31;;;;;;;11.98;6.13;;;;;;;;;;4922079;29;20040;-74
2021/06/11 04:51:57;;;;;;;9.65;5.55;;;;;;;;;;4885799;29;20444;-70
2021/06/11 04:54:23;;;;;;;8.93;5.63;;;;;;;;;;4908014;29;20097;-71
2021/06/11 04:56:49;;;;;;;11.13;6.68;;;;;;;;;;4909878;29;20092;-65
2021/06/11 04:59:15;;;;;;;11.48;5.75;;;;;;;;;;4901275;29;20025;-77
2021/06/11 05:01:41;;;;;;;8.60;5.55;;;;;;;;;;4910574;29;20047;-69
2021/06/11 05:04:07;;;;;;;8.63;5.50;;;;;;;;;;4906145;29;20056;-73
2021/06/11 05:06:33;;;;;;;7.28;5.28;;;;;;;;;;4914156;29;20016;-80
2021/06/11 05:08:59;;;;;;;9.50;5.13;;;;;;;;;;4906254;29;20033;-74
2021/06/11 05:11:25;;;;;;;10.63;5.68;;;;;;;;;;4906568;29;20066;-74
2021/06/11 05:13:51;;;;;;;12.93;6.57;;;;;;;;;;4907675;29;20024;-86
2021/06/11 05:16:20;;;;;;;17.00;6.05;;;;;;;;;;4914192;29;20043;-78
2021/06/11 05:18:46;;;;;;;11.80;6.40;;;;;;;;;;4908876;29;20032;-87
2021/06/11 05:21:12;;;;;;;11.05;6.30;;;;;;;;;;4912358;29;20095;-87
2021/06/11 05:23:38;;;;;;;32.28;22.88;;;;;;;;;;4904458;29;20024;-70
2021/06/11 05:26:04;;;;;;;15.07;8.93;;;;;;;;;;4907998;29;20043;-87
2021/06/11 05:28:33;;;;;;;11.23;6.28;;;;;;;;;;4910696;29;20032;-87
2021/06/11 05:31:01;;;;;;;14.93;6.57;;;;;;;;;;4897492;29;20032;-85
2021/06/11 05:33:30;;;;;;;12.88;6.55;;;;;;;;;;4901126;29;20028;-87
2021/06/11 05:35:57;;;;;;;11.23;7.15;;;;;;;;;;4913800;29;20481;-88
2021/06/11 05:38:26;;;;;;;13.00;6.30;;;;;;;;;;4908956;29;20474;-87
2021/06/11 05:40:53;;;;;;;16.08;6.30;;;;;;;;;;4902206;29;20052;-67
2021/06/11 05:43:19;;;;;;;9.30;6.10;;;;;;;;;;4903320;29;20099;-87
2021/06/11 05:45:45;;;;;;;12.02;6.28;;;;;;;;;;4919328;29;20028;-75
2021/06/11 05:48:11;;;;;;;11.07;6.15;;;;;;;;;;4914871;29;20036;-68
2021/06/11 05:50:39;;;;;;;10.05;5.50;;;;;;;;;;4900893;29;20036;-87
2021/06/11 05:53:22;;;;;;;11.38;6.07;;;;;;;;;;4923896;29;20373;-87
2021/06/11 05:55:48;;;;;;;10.73;5.68;;;;;;;;;;4907571;29;20036;-84
2021/06/11 05:58:14;;;;;;;10.55;6.20;;;;;;;;;;4908138;29;20039;-84
2021/06/11 06:00:40;;;;;;;10.45;5.82;;;;;;;;;;4911712;29;20073;-83
2021/06/11 06:03:06;;;;;;;11.77;5.95;;;;;;;;;;4901101;29;20036;-83
2021/06/11 06:05:32;;;;;;;12.63;6.45;;;;;;;;;;4904420;29;20363;-85
2021/06/11 06:07:58;;;;;;;11.80;5.32;;;;;;;;;;4906915;29;20028;-78
2021/06/11 06:10:24;;;;;;;9.02;5.57;;;;;;;;;;4898119;29;20040;-85
2021/06/11 06:12:50;;;;;;;7.97;5.15;;;;;;;;;;4898662;29;20040;-88
2021/06/11 06:15:17;;;;;;;8.38;5.45;;;;;;;;;;4900430;29;20376;-84
2021/06/11 06:17:43;;;;;;;10.52;5.15;;;;;;;;;;4903273;29;20052;-86
2021/06/11 06:20:10;;;;;;;6.85;4.53;;;;;;;;;;4904751;29;20029;-88
2021/06/11 06:22:36;;;;;;;8.10;5.05;;;;;;;;;;4905833;29;20024;-82
2021/06/11 06:25:11;;;;;;;7.68;4.70;;;;;;;;;;4915449;29;20072;-88
2021/06/11 06:27:42;;;;;;;9.30;5.30;;;;;;;;;;4911155;29;20033;-79
2021/06/11 06:30:09;;;;;;;10.70;5.53;;;;;;;;;;4913686;29;20032;-86
2021/06/11 06:32:35;;;;;;;12.45;5.43;;;;;;;;;;4891212;29;20034;-85
2021/06/11 06:35:01;;;;;;;10.32;5.30;;;;;;;;;;4907670;29;20032;-70
2021/06/11 06:37:28;;;;;;;9.35;5.10;;;;;;;;;;4899795;29;20028;-88
2021/06/11 06:39:55;;;;;;;11.68;5.63;;;;;;;;;;4900957;29;20490;-88
2021/06/11 06:42:28;;;;;;;9.05;5.72;;;;;;;;;;4920780;29;20036;-83
2021/06/11 06:44:57;;;;;;;10.55;5.93;;;;;;;;;;4908366;29;20059;-80
2021/06/11 06:47:26;;;;;;;14.68;6.55;;;;;;;;;;4884465;29;20048;-73
2021/06/11 06:49:52;;;;;;;10.93;6.20;;;;;;;;;;4905588;29;20363;-89
2021/06/11 06:52:18;;;;;;;15.35;6.88;;;;;;;;;;4914275;29;20067;-85
2021/06/11 06:54:44;;;;;;;10.75;6.35;;;;;;;;;;4908587;29;20107;-73
2021/06/11 06:57:11;;;;;;;13.98;6.70;;;;;;;;;;4904368;29;20033;-65
2021/06/11 06:59:37;;;;;;;9.57;6.50;;;;;;;;;;4908371;29;20020;-74
2021/06/11 07:02:03;;;;;;;10.95;6.75;;;;;;;;;;4902956;29;20467;-79
2021/06/11 07:04:29;;;;;;;9.23;5.93;;;;;;;;;;4913230;29;20028;-76
2021/06/11 07:06:56;;;;;;;12.52;6.40;;;;;;;;;;4910567;29;20415;-75
2021/06/11 07:09:31;;;;;;;12.18;6.10;;;;;;;;;;4908326;29;20185;-76
2021/06/11 07:11:57;;;;;;;10.57;5.85;;;;;;;;;;4887175;29;20048;-82
2021/06/11 07:14:26;;;;;;;10.18;6.22;;;;;;;;;;4888852;29;20818;-85
2021/06/11 07:16:52;;;;;;;12.23;6.10;;;;;;;;;;4890372;29;20048;-74
2021/06/11 07:19:19;;;;;;;11.07;6.30;;;;;;;;;;4914738;29;20071;-79
2021/06/11 07:21:45;;;;;;;8.52;5.78;;;;;;;;;;4906628;29;20036;-71
2021/06/11 07:24:11;;;;;;;11.68;5.82;;;;;;;;;;4912367;29;20032;-79
2021/06/11 07:26:37;;;;;;;11.07;5.97;;;;;;;;;;4909848;29;20031;-74
2021/06/11 07:29:04;;;;;;;10.32;5.75;;;;;;;;;;4910752;29;20031;-75
2021/06/11 07:31:30;;;;;;;10.40;5.68;;;;;;;;;;4910550;29;20505;-73
2021/06/11 07:34:20;;;;;;;9.10;5.53;;;;;;;;;;4915878;29;20791;-74
2021/06/11 07:36:46;;;;;;;11.20;5.90;;;;;;;;;;4887339;29;20072;-74
2021/06/11 07:39:12;;;;;;;10.45;5.75;;;;;;;;;;4914100;29;20517;-74
2021/06/11 07:41:38;;;;;;;12.68;5.88;;;;;;;;;;4907844;29;20091;-69
2021/06/11 07:44:04;;;;;;;12.05;5.80;;;;;;;;;;4888092;29;20483;-70
2021/06/11 07:46:36;;;;;;;8.13;6.30;;;;;;;;;;4906756;29;20036;-74
2021/06/11 07:49:03;;;;;;;11.73;6.55;;;;;;;;;;4904227;29;20124;-75
2021/06/11 07:51:29;;;;;;;13.82;6.13;;;;;;;;;;4907044;29;20470;-75
2021/06/11 07:53:55;;;;;;;8.68;6.68;;;;;;;;;;4906799;29;20032;-76
2021/06/11 07:56:21;;;;;;;9.40;6.03;;;;;;;;;;4912391;29;20036;-76
2021/06/11 07:58:47;;;;;;;11.18;6.95;;;;;;;;;;4906570;29;20394;-84
2021/06/11 08:01:13;;;;;;;8.43;6.45;;;;;;;;;;4910362;29;20032;-76
2021/06/11 08:03:39;;;;;;;11.25;6.60;;;;;;;;;;4909378;29;20462;-70
2021/06/11 08:06:05;;;;;;;9.57;6.10;;;;;;;;;;4908780;29;20108;-78
2021/06/11 08:08:31;;;;;;;14.13;6.60;;;;;;;;;;4902033;29;20029;-73
2021/06/11 08:10:57;;;;;;;11.25;6.72;;;;;;;;;;4905300;29;20039;-78
2021/06/11 08:13:23;;;;;;;8.75;6.10;;;;;;;;;;4909779;29;20107;-80
2021/06/11 08:15:50;;;;;;;9.77;6.07;;;;;;;;;;4910796;29;20036;-85
2021/06/11 08:18:16;;;;;;;7.65;5.70;;;;;;;;;;4908590;29;20429;-77
2021/06/11 08:20:42;;;;;;;10.82;6.28;;;;;;;;;;4887656;29;20044;-74
2021/06/11 08:23:08;;;;;;;8.35;6.30;;;;;;;;;;4901093;29;20036;-78
2021/06/11 08:25:35;;;;;;;11.57;6.68;;;;;;;;;;4895348;29;20066;-87
2021/06/11 08:28:01;;;;;;;8.85;6.30;;;;;;;;;;4907774;29;20152;-77
2021/06/11 08:30:29;;;;;;;10.18;6.63;;;;;;;;;;4908548;29;20498;-79
2021/06/11 08:32:55;;;;;;;7.47;6.60;;;;;;;;;;4901009;29;20151;-84
2021/06/11 08:35:22;;;;;;;8.70;6.47;;;;;;;;;;4910881;29;20032;-76
2021/06/11 08:37:48;;;;;;;10.55;6.40;;;;;;;;;;4908659;29;20555;-76
2021/06/11 08:40:15;;;;;;;23.73;6.88;;;;;;;;;;4906881;29;20033;-81
2021/06/11 08:42:43;;;;;;;6.88;5.57;;;;;;;;;;4909278;29;20056;-75
2021/06/11 08:45:09;;;;;;;6.75;5.53;;;;;;;;;;4911695;29;20476;-82
2021/06/11 08:47:37;;;;;;;7.07;5.20;;;;;;;;;;4911678;29;20070;-77
2021/06/11 08:50:04;;;;;;;17.77;5.68;;;;;;;;;;4903989;29;20494;-69
2021/06/11 08:52:30;;;;;;;11.27;5.30;;;;;;;;;;4907651;29;20449;-78
2021/06/11 08:54:57;;;;;;;7.20;4.82;;;;;;;;;;4912392;29;20549;-69
2021/06/11 08:57:23;;;;;;;6.72;4.70;;;;;;;;;;4904974;29;20028;-69
2021/06/11 08:59:52;;;;;;;10.73;4.95;;;;;;;;;;4914433;29;20033;-70
2021/06/11 09:02:18;;;;;;;11.48;6.13;;;;;;;;;;4913187;29;20247;-65
2021/06/11 09:04:50;;;;;;;8.52;5.40;;;;;;;;;;4913782;29;20031;-72
2021/06/11 09:07:20;;;;;;;18.63;5.00;;;;;;;;;;4913103;29;20024;-68
2021/06/11 09:09:50;;;;;;;8.05;4.78;;;;;;;;;;4902797;29;20029;-69
2021/06/11 09:12:39;;;;;;;13.00;4.97;;;;;;;;;;4906803;29;20475;-67
2021/06/11 09:15:15;;;;;;;10.82;4.68;;;;;;;;;;4833671;29;20521;-65
2021/06/11 09:17:41;;;;;;;9.25;4.88;;;;;;;;;;4843508;29;20046;-72
2021/06/11 09:20:07;;;;;;;7.40;5.28;;;;;;;;;;4844077;29;20171;-73
2021/06/11 09:22:53;;;;;;;9.43;5.55;;;;;;;;;;4834680;29;20033;-67
2021/06/11 09:25:31;;;;;;;9.85;5.32;;;;;;;;;;4843867;29;20605;-63
2021/06/11 09:27:58;;;;;;;11.32;5.80;;;;;;;;;;4842358;29;20077;-70
2021/06/11 09:30:30;;;;;;;9.52;5.35;;;;;;;;;;4848262;29;20057;-72
2021/06/11 09:33:04;;;;;;;7.38;5.05;;;;;;;;;;4842039;29;20068;-69
2021/06/11 09:35:39;;;;;;;19.42;7.20;;;;;;;;;;4835339;29;20465;-71
2021/06/11 09:38:11;;;;;;;6.53;5.25;;;;;;;;;;4851727;29;20030;-71
2021/06/11 09:40:38;;;;;;;16.42;5.32;;;;;;;;;;4847496;29;20037;-70
2021/06/11 09:43:04;;;;;;;7.70;5.05;;;;;;;;;;4842133;29;20071;-65
2021/06/11 09:45:31;;;;;;;7.63;4.30;;;;;;;;;;4833053;29;20073;-75
2021/06/11 09:47:57;;;;;;;6.65;4.55;;;;;;;;;;4842206;29;20441;-73
2021/06/11 09:50:23;;;;;;;10.02;4.80;;;;;;;;;;4841926;29;20147;-69
2021/06/11 09:52:54;;;;;;;8.55;5.10;;;;;;;;;;4897748;29;20070;-63
2021/06/11 09:55:24;;;;;;;5.88;4.78;;;;;;;;;;4902640;29;20068;-71
2021/06/11 09:58:07;;;;;;;7.22;5.15;;;;;;;;;;4908153;29;20024;-78
2021/06/11 10:00:34;;;;;;;7.32;5.13;;;;;;;;;;4909587;29;20028;-74
2021/06/11 10:03:01;;;;;;;9.27;5.82;;;;;;;;;;4913602;29;20436;-67
2021/06/11 10:05:27;;;;;;;7.43;4.90;;;;;;;;;;4905449;29;20510;-67
2021/06/11 10:07:54;;;;;;;9.43;5.32;;;;;;;;;;4902559;29;20031;-67
2021/06/11 10:10:20;;;;;;;7.28;5.68;;;;;;;;;;4905542;29;20471;-73
2021/06/11 10:12:46;;;;;;;11.45;5.45;;;;;;;;;;4910558;29;20039;-74
2021/06/11 10:15:13;;;;;;;6.22;4.68;;;;;;;;;;4902416;29;20036;-71
2021/06/11 10:17:41;;;;;;;10.30;4.88;;;;;;;;;;4909078;29;20415;-70
2021/06/11 10:20:08;;;;;;;6.85;4.40;;;;;;;;;;4911846;29;20152;-68
2021/06/11 10:22:34;;;;;;;6.75;4.63;;;;;;;;;;4911265;29;20035;-71
2021/06/11 10:25:01;;;;;;;8.75;4.60;;;;;;;;;;4904936;29;20110;-63
2021/06/11 10:27:27;;;;;;;9.27;4.80;;;;;;;;;;4903617;29;20684;-69
2021/06/11 10:29:53;;;;;;;16.63;5.18;;;;;;;;;;4913709;29;20028;-71
2021/06/11 10:32:19;;;;;;;6.10;4.15;;;;;;;;;;4904511;29;20028;-65
2021/06/11 10:34:52;;;;;;;8.50;5.30;;;;;;;;;;4902223;29;20032;-72
2021/06/11 10:37:41;;;;;;;9.48;5.32;;;;;;;;;;4905896;29;20555;-69
2021/06/11 10:40:14;;;;;;;8.80;5.20;;;;;;;;;;4908730;29;20021;-77
2021/06/11 10:42:40;;;;;;;7.28;5.20;;;;;;;;;;4914690;29;20032;-70
2021/06/11 10:45:06;;;;;;;9.00;5.47;;;;;;;;;;4909710;29;20040;-76
2021/06/11 10:47:34;;;;;;;12.18;5.30;;;;;;;;;;4904940;29;20382;-70
2021/06/11 10:50:05;;;;;;;17.17;5.82;;;;;;;;;;4909267;29;20474;-75
2021/06/11 10:52:31;;;;;;;9.45;4.80;;;;;;;;;;4909979;29;20479;-70
2021/06/11 10:54:57;;;;;;;9.00;4.70;;;;;;;;;;4906412;29;20043;-75
2021/06/11 10:57:24;;;;;;;8.68;5.10;;;;;;;;;;4903714;29;20024;-77
2021/06/11 10:59:50;;;;;;;8.13;4.65;;;;;;;;;;4904942;29;20028;-83
2021/06/11 11:02:17;;;;;;;8.55;4.13;;;;;;;;;;4903997;29;20040;-83
2021/06/11 11:04:47;;;;;;;5.35;3.95;;;;;;;;;;4899384;29;20032;-69
2021/06/11 11:07:25;;;;;;;7.25;4.28;;;;;;;;;;4902657;29;20040;-76
2021/06/11 11:09:55;;;;;;;7.82;3.90;;;;;;;;;;4899295;29;20056;-69
2021/06/11 11:12:26;;;;;;;11.00;5.13;;;;;;;;;;4897327;29;20387;-82
2021/06/11 11:14:53;;;;;;;4.72;4.07;;;;;;;;;;4899953;29;20446;-76
2021/06/11 11:17:19;;;;;;;7.15;4.28;;;;;;;;;;4900313;29;20659;-78
2021/06/11 11:19:45;;;;;;;6.70;4.10;;;;;;;;;;4899102;29;20025;-87
2021/06/11 11:22:22;;;;;;;7.38;4.10;;;;;;;;;;4913329;29;20031;-88
2021/06/11 11:24:48;;;;;;;7.57;4.20;;;;;;;;;;4903941;29;20076;-87
2021/06/11 11:27:14;;;;;;;5.40;3.97;;;;;;;;;;4909074;29;20123;-77
2021/06/11 11:29:40;;;;;;;7.72;4.13;;;;;;;;;;4902137;29;20024;-77
2021/06/11 11:32:07;;;;;;;6.75;3.95;;;;;;;;;;4900681;29;20064;-78
2021/06/11 11:34:33;;;;;;;7.70;4.00;;;;;;;;;;4886302;29;20020;-70
2021/06/11 11:36:59;;;;;;;8.68;4.10;;;;;;;;;;4903474;29;20028;-73
2021/06/11 11:39:26;;;;;;;10.07;4.10;;;;;;;;;;4910604;29;20032;-71
2021/06/11 11:41:55;;;;;;;6.18;4.20;;;;;;;;;;4901928;29;20090;-78
2021/06/11 11:44:25;;;;;;;8.27;4.00;;;;;;;;;;4901177;29;20089;-76
2021/06/11 11:46:52;;;;;;;10.45;4.40;;;;;;;;;;4896911;29;20032;-75
2021/06/11 11:49:18;;;;;;;13.95;4.40;;;;;;;;;;4911855;29;20446;-83
2021/06/11 11:51:47;;;;;;;7.90;3.33;;;;;;;;;;4894261;29;20032;-82
2021/06/11 11:54:14;;;;;;;5.07;2.97;;;;;;;;;;4911714;29;20028;-70
2021/06/11 11:56:40;;;;;;;6.57;3.40;;;;;;;;;;4912952;29;20032;-78
2021/06/11 11:59:07;;;;;;;6.15;3.40;;;;;;;;;;4907324;29;20029;-80
2021/06/11 12:01:40;;;;;;;6.47;3.30;;;;;;;;;;4916004;29;20036;-78
2021/06/11 12:04:06;;;;;;;;;;;;;;;;;;4909545;29;20032;-82
2021/06/11 12:06:32;;;;;;;6.93;3.00;;;;;;;;;;4905516;29;20323;-80
2021/06/11 12:08:58;;;;;;;4.03;2.97;;;;;;;;;;4907270;29;20100;-81
2021/06/11 12:11:24;;;;;;;6.60;2.92;;;;;;;;;;4915455;29;20032;-81
2021/06/11 12:13:51;;;;;;;7.38;2.85;;;;;;;;;;4910860;29;20089;-81
2021/06/11 12:16:17;;;;;;;5.13;2.90;;;;;;;;;;4909733;29;20040;-72
2021/06/11 12:18:43;;;;;;;6.05;3.08;;;;;;;;;;4906428;29;20510;-77
2021/06/11 12:21:09;;;;;;;5.95;3.20;;;;;;;;;;4908877;29;20024;-76
2021/06/11 12:23:36;;;;;;;5.47;2.70;;;;;;;;;;4912035;29;20036;-81
2021/06/11 12:26:02;;;;;;;8.32;2.67;;;;;;;;;;4916299;29;20039;-81
2021/06/11 12:28:28;;;;;;;5.32;2.75;;;;;;;;;;4915814;29;20028;-62
2021/06/11 12:30:54;;;;;;;4.85;2.88;;;;;;;;;;4911801;29;20028;-72
2021/06/11 12:33:20;;;;;;;3.95;2.50;;;;;;;;;;4910537;29;20031;-77
2021/06/11 12:35:47;;;;;;;2.63;2.30;;;;;;;;;;4916561;29;20048;-78
2021/06/11 12:38:13;;;;;;;4.03;2.22;;;;;;;;;;4912075;29;20047;-71
2021/06/11 12:40:43;;;;;;;3.65;2.50;;;;;;;;;;4909244;29;20080;-80
2021/06/11 12:43:14;;;;;;;3.63;2.60;;;;;;;;;;4902883;29;20020;-73
2021/06/11 12:45:41;;;;;;;5.00;3.25;;;;;;;;;;4903449;29;20069;-61
2021/06/11 12:48:07;;;;;;;4.03;2.50;;;;;;;;;;4915809;29;20020;-77
2021/06/11 12:50:33;;;;;;;5.95;2.80;;;;;;;;;;4912728;29;20029;-81
2021/06/11 12:53:00;;;;;;;3.30;2.50;;;;;;;;;;4906340;29;20089;-72
2021/06/11 12:55:26;;;;;;;4.90;2.75;;;;;;;;;;4907795;29;20032;-72
2021/06/11 12:57:52;;;;;;;4.40;2.70;;;;;;;;;;4906533;29;20043;-79
2021/06/11 13:00:18;;;;;;;6.00;2.97;;;;;;;;;;4911047;29;20017;-75
2021/06/11 13:02:45;;;;;;;5.70;2.80;;;;;;;;;;4908524;29;20664;-66
2021/06/11 13:05:11;;;;;;;6.60;2.83;;;;;;;;;;4892009;29;20830;-71
2021/06/11 13:07:38;;;;;;;5.93;3.05;;;;;;;;;;4904061;29;20383;-74
2021/06/11 13:10:05;;;;;;;66.07;5.63;;;;;;;;;;4916856;29;20024;-79
2021/06/11 13:12:31;;;;;;;5.78;2.90;;;;;;;;;;4909993;29;20024;-82
2021/06/11 13:14:57;;;;;;;4.20;2.88;;;;;;;;;;4908751;29;20035;-76
2021/06/11 13:17:23;;;;;;;4.47;2.60;;;;;;;;;;4907602;29;20067;-70
2021/06/11 13:19:49;;;;;;;8.18;2.80;;;;;;;;;;4911266;29;20031;-76
2021/06/11 13:22:15;;;;;;;6.57;2.85;;;;;;;;;;4914289;29;20080;-81
2021/06/11 13:24:41;;;;;;;5.10;2.95;;;;;;;;;;4910135;29;20056;-77
2021/06/11 13:27:07;;;;;;;3.83;2.80;;;;;;;;;;4906968;29;20368;-73
2021/06/11 13:29:33;;;;;;;4.68;2.83;;;;;;;;;;4908536;29;20035;-72
2021/06/11 13:32:01;;;;;;;4.53;2.88;;;;;;;;;;4907388;29;20033;-82
2021/06/11 13:34:27;;;;;;;17.67;3.58;;;;;;;;;;4905644;29;20028;-69
2021/06/11 13:36:53;;;;;;;6.32;2.80;;;;;;;;;;4913553;29;20040;-75
2021/06/11 13:39:27;;;;;;;5.88;3.05;;;;;;;;;;4911674;29;20024;-76
2021/06/11 13:41:54;;;;;;;8.13;3.50;;;;;;;;;;4888094;29;20025;-80
2021/06/11 13:44:20;;;;;;;4.15;2.90;;;;;;;;;;4907136;29;20031;-82
2021/06/11 13:46:46;;;;;;;3.92;2.95;;;;;;;;;;4904862;29;20025;-78
2021/06/11 13:49:12;;;;;;;5.07;2.70;;;;;;;;;;4908284;29;20028;-72
2021/06/11 13:51:38;;;;;;;7.90;3.13;;;;;;;;;;4909149;29;20020;-84
2021/06/11 13:54:04;;;;;;;4.60;3.40;;;;;;;;;;4903506;29;20446;-82
2021/06/11 13:56:30;;;;;;;8.88;3.15;;;;;;;;;;4907642;29;20367;-70
2021/06/11 13:58:56;;;;;;;4.53;3.00;;;;;;;;;;4906779;29;20099;-72
2021/06/11 14:01:22;;;;;;;14.80;4.00;;;;;;;;;;4911578;29;20028;-73
2021/06/11 14:03:48;;;;;;;4.53;2.83;;;;;;;;;;4911759;29;20025;-81
2021/06/11 14:06:14;;;;;;;5.20;3.00;;;;;;;;;;4909231;29;20071;-77
2021/06/11 14:08:41;;;;;;;4.72;3.03;;;;;;;;;;4909165;29;20487;-73
2021/06/11 14:11:07;;;;;;;9.60;3.25;;;;;;;;;;4913266;29;20528;-79
2021/06/11 14:13:33;;;;;;;4.88;2.90;;;;;;;;;;4909320;29;20055;-77
2021/06/11 14:15:59;;;;;;;4.45;2.90;;;;;;;;;;4910830;29;20043;-82
2021/06/11 14:18:25;;;;;;;3.00;2.50;;;;;;;;;;4909856;29;20036;-80
2021/06/11 14:20:52;;;;;;;6.07;2.92;;;;;;;;;;4910003;29;20035;-75
2021/06/11 14:23:18;;;;;;;3.65;2.88;;;;;;;;;;4906181;29;20442;-66
2021/06/11 14:25:45;;;;;;;4.47;2.75;;;;;;;;;;4911019;29;20055;-76
2021/06/11 14:28:13;;;;;;;8.43;3.10;;;;;;;;;;4908868;29;20032;-75
2021/06/11 14:30:42;;;;;;;6.25;2.80;;;;;;;;;;4904460;29;20057;-83
2021/06/11 14:33:10;;;;;;;5.75;2.60;;;;;;;;;;4900691;29;20383;-82
2021/06/11 14:35:36;;;;;;;3.95;2.70;;;;;;;;;;4906500;29;20504;-71
2021/06/11 14:38:02;;;;;;;3.83;2.58;;;;;;;;;;4909944;29;20032;-78
2021/06/11 14:40:28;;;;;;;4.10;2.70;;;;;;;;;;4899763;29;20043;-73